createdAt,value
2019-02-16T00:00:28.253Z,101613.94
2019-02-16T00:02:56.841Z,101615.64
2019-02-16T00:05:25.390Z,101613.88
2019-02-16T00:07:53.933Z,101611.30
2019-02-16T00:10:22.542Z,101612.42
2019-02-16T00:12:51.110Z,101613.84
2019-02-16T00:15:19.663Z,101619.39
2019-02-16T00:17:48.245Z,101618.77
2019-02-16T00:20:16.794Z,101619.39
2019-02-16T00:22:45.341Z,101619.23
2019-02-16T00:25:13.920Z,101621.64
2019-02-16T00:27:42.499Z,101611.83
2019-02-16T00:30:11.094Z,101619.80
2019-02-16T00:32:39.645Z,101616.86
2019-02-16T00:35:08.219Z,101612.91
2019-02-16T00:37:36.835Z,101616.98
2019-02-16T00:40:05.629Z,101613.20
2019-02-16T00:42:34.181Z,101613.99
2019-02-16T00:45:02.758Z,101617.17
2019-02-16T00:47:31.342Z,101615.13
2019-02-16T00:49:59.899Z,101611.37
2019-02-16T00:52:28.455Z,101607.41
2019-02-16T00:54:57.022Z,101600.73
2019-02-16T00:57:25.610Z,101596.31
2019-02-16T00:59:54.158Z,101594.50
2019-02-16T01:02:22.714Z,101594.38
2019-02-16T01:04:51.284Z,101593.59
2019-02-16T01:07:19.842Z,101587.79
2019-02-16T01:09:48.414Z,101596.05
2019-02-16T01:12:16.965Z,101592.67
2019-02-16T01:14:45.538Z,101589.14
2019-02-16T01:17:14.118Z,101584.44
2019-02-16T01:19:42.663Z,101580.50
2019-02-16T01:22:11.241Z,101571.12
2019-02-16T01:24:39.786Z,101572.34
2019-02-16T01:27:08.332Z,101574.91
2019-02-16T01:29:36.919Z,101566.66
2019-02-16T01:32:05.461Z,101567.53
2019-02-16T01:34:34.014Z,101556.94
2019-02-16T01:37:02.583Z,101560.81
2019-02-16T01:39:31.186Z,101555.92
2019-02-16T01:41:59.745Z,101556.59
2019-02-16T01:44:28.303Z,101556.30
2019-02-16T01:46:56.883Z,101561.76
2019-02-16T01:49:25.456Z,101553.47
2019-02-16T01:51:53.984Z,101555.11
2019-02-16T01:54:22.568Z,101551.98
2019-02-16T01:56:51.920Z,101549.06
2019-02-16T01:59:20.953Z,101553.66
2019-02-16T02:01:50.461Z,101548.19
2019-02-16T02:04:20.195Z,101547.20
2019-02-16T02:06:49.508Z,101552.37
2019-02-16T02:09:19.235Z,101547.65
2019-02-16T02:11:48.515Z,101544.83
2019-02-16T02:14:17.150Z,101537.60
2019-02-16T02:16:45.730Z,101533.83
2019-02-16T02:19:14.398Z,101532.91
2019-02-16T02:21:42.886Z,101524.47
2019-02-16T02:24:11.426Z,101528.77
2019-02-16T02:26:40.320Z,101523.67
2019-02-16T02:29:08.868Z,101521.13
2019-02-16T02:31:37.709Z,101518.86
2019-02-16T02:34:06.383Z,101517.83
2019-02-16T02:36:35.008Z,101515.73
2019-02-16T02:39:04.421Z,101507.73
2019-02-16T02:41:33.030Z,101500.09
2019-02-16T02:44:01.580Z,101500.30
2019-02-16T02:46:30.127Z,101499.05
2019-02-16T02:48:58.715Z,101498.36
2019-02-16T02:51:27.346Z,101500.23
2019-02-16T02:53:55.892Z,101497.39
2019-02-16T02:56:24.473Z,101493.30
2019-02-16T02:58:53.334Z,101493.15
2019-02-16T03:01:21.904Z,101497.02
2019-02-16T03:03:50.532Z,101489.87
2019-02-16T03:06:19.503Z,101489.16
2019-02-16T03:08:48.057Z,101492.19
2019-02-16T03:11:16.948Z,101478.78
2019-02-16T03:13:45.539Z,101482.83
2019-02-16T03:16:14.419Z,101477.41
2019-02-16T03:18:43.313Z,101472.15
2019-02-16T03:21:11.900Z,101479.33
2019-02-16T03:23:40.471Z,101480.36
2019-02-16T03:26:16.270Z,101485.89
2019-02-16T03:29:04.938Z,101475.95
2019-02-16T03:31:56.135Z,101476.94
2019-02-16T03:34:31.735Z,101475.94
2019-02-16T03:37:21.052Z,101473.32
2019-02-16T03:39:49.598Z,101475.90
2019-02-16T03:42:18.152Z,101474.50
2019-02-16T03:44:46.726Z,101467.41
2019-02-16T03:47:15.275Z,101481.45
2019-02-16T03:49:43.895Z,101480.42
2019-02-16T03:52:14.124Z,101473.36
2019-02-16T03:54:42.721Z,101476.41
2019-02-16T03:57:11.357Z,101474.53
2019-02-16T03:59:39.904Z,101472.63
2019-02-16T04:02:08.454Z,101472.51
2019-02-16T04:04:37.040Z,101477.16
2019-02-16T04:07:05.589Z,101479.19
2019-02-16T04:09:34.145Z,101481.38
2019-02-16T04:12:02.723Z,101475.27
2019-02-16T04:14:31.536Z,101470.54
2019-02-16T04:17:00.128Z,101471.72
2019-02-16T04:19:28.744Z,101474.42
2019-02-16T04:21:57.292Z,101472.65
2019-02-16T04:24:25.841Z,101463.84
2019-02-16T04:26:54.416Z,101458.69
2019-02-16T04:29:22.964Z,101448.42
2019-02-16T04:31:51.561Z,101446.98
2019-02-16T04:34:20.114Z,101441.59
2019-02-16T04:36:48.672Z,101444.22
2019-02-16T04:39:17.255Z,101445.60
2019-02-16T04:41:45.808Z,101448.62
2019-02-16T04:44:14.357Z,101456.33
2019-02-16T04:46:42.970Z,101452.62
2019-02-16T04:49:11.521Z,101455.78
2019-02-16T04:51:40.103Z,101449.74
2019-02-16T04:54:08.661Z,101446.84
2019-02-16T04:56:37.244Z,101445.61
2019-02-16T04:59:05.805Z,101449.36
2019-02-16T05:01:34.378Z,101445.95
2019-02-16T05:04:02.924Z,101444.80
2019-02-16T05:06:31.470Z,101447.62
2019-02-16T05:09:00.062Z,101449.06
2019-02-16T05:11:28.968Z,101447.13
2019-02-16T05:13:57.519Z,101444.65
2019-02-16T05:16:26.101Z,101440.40
2019-02-16T05:18:54.720Z,101444.05
2019-02-16T05:21:23.262Z,101434.24
2019-02-16T05:23:51.845Z,101437.66
2019-02-16T05:26:20.392Z,101434.31
2019-02-16T05:28:48.935Z,101438.86
2019-02-16T05:31:17.520Z,101436.98
2019-02-16T05:33:46.085Z,101436.52
2019-02-16T05:36:14.642Z,101429.64
2019-02-16T05:38:43.230Z,101428.87
2019-02-16T05:41:11.784Z,101424.33
2019-02-16T05:43:40.346Z,101432.94
2019-02-16T05:46:08.921Z,101429.83
2019-02-16T05:48:37.464Z,101431.20
2019-02-16T05:51:06.052Z,101431.70
2019-02-16T05:53:34.601Z,101438.98
2019-02-16T05:56:03.180Z,101440.65
2019-02-16T05:58:31.722Z,101432.86
2019-02-16T06:01:00.274Z,101428.36
2019-02-16T06:03:28.873Z,101434.28
2019-02-16T06:05:57.432Z,101436.98
2019-02-16T06:08:25.980Z,101436.60
2019-02-16T06:10:54.648Z,101436.70
2019-02-16T06:13:23.209Z,101434.60
2019-02-16T06:15:51.757Z,101438.81
2019-02-16T06:18:20.336Z,101441.50
2019-02-16T06:20:48.917Z,101445.23
2019-02-16T06:23:17.538Z,101446.95
2019-02-16T06:25:46.115Z,101453.55
2019-02-16T06:28:14.674Z,101448.19
2019-02-16T06:30:43.241Z,101453.59
2019-02-16T06:33:11.794Z,101453.81
2019-02-16T06:36:05.267Z,101450.19
2019-02-16T06:38:33.820Z,101451.59
2019-02-16T06:41:02.363Z,101447.97
2019-02-16T06:43:31.139Z,101458.70
2019-02-16T06:46:00.897Z,101455.41
2019-02-16T06:48:29.671Z,101448.23
2019-02-16T06:50:58.217Z,101450.78
2019-02-16T06:53:26.782Z,101460.30
2019-02-16T06:56:05.183Z,101454.45
2019-02-16T06:58:33.764Z,101446.95
2019-02-16T07:01:02.319Z,101452.17
2019-02-16T07:03:30.902Z,101449.49
2019-02-16T07:05:59.444Z,101454.34
2019-02-16T07:08:27.991Z,101452.80
2019-02-16T07:10:56.605Z,101454.48
2019-02-16T07:13:35.177Z,101445.81
2019-02-16T07:16:36.794Z,101443.49
2019-02-16T07:19:18.601Z,101443.27
2019-02-16T07:21:47.186Z,101448.42
2019-02-16T07:24:15.726Z,101460.69
2019-02-16T07:26:44.329Z,101454.78
2019-02-16T07:29:12.872Z,101453.13
2019-02-16T07:31:41.444Z,101449.98
2019-02-16T07:34:10.026Z,101455.22
2019-02-16T07:36:38.569Z,101454.77
2019-02-16T07:39:08.118Z,101461.72
2019-02-16T07:41:36.729Z,101464.89
2019-02-16T07:44:30.500Z,101453.91
2019-02-16T07:47:07.497Z,101457.00
2019-02-16T07:50:10.357Z,101455.20
2019-02-16T07:53:09.915Z,101451.63
2019-02-16T07:55:59.406Z,101455.78
2019-02-16T07:58:32.639Z,101458.55
2019-02-16T08:01:14.589Z,101458.62
2019-02-16T08:03:50.904Z,101458.21
2019-02-16T08:06:53.933Z,101466.81
2019-02-16T08:09:44.393Z,101466.50
2019-02-16T08:12:26.144Z,101464.70
2019-02-16T08:15:14.297Z,101458.02
2019-02-16T08:17:59.568Z,101464.36
2019-02-16T08:20:35.779Z,101452.55
2019-02-16T08:23:23.375Z,101453.33
2019-02-16T08:26:04.883Z,101440.98
2019-02-16T08:28:39.681Z,101446.02
2019-02-16T08:31:14.036Z,101440.45
2019-02-16T08:33:48.116Z,101439.11
2019-02-16T08:36:34.335Z,101442.42
2019-02-16T08:39:09.958Z,101437.48
2019-02-16T08:41:49.550Z,101441.11
2019-02-16T08:44:46.094Z,101438.53
2019-02-16T08:47:36.487Z,101442.37
2019-02-16T08:50:23.242Z,101429.31
2019-02-16T08:53:29.293Z,101429.02
2019-02-16T08:56:15.303Z,101427.97
2019-02-16T08:58:53.856Z,101432.45
2019-02-16T09:01:40.519Z,101429.52
2019-02-16T09:04:19.500Z,101429.52
2019-02-16T09:06:53.882Z,101422.22
2019-02-16T09:09:40.471Z,101425.80
2019-02-16T09:12:21.876Z,101426.14
2019-02-16T09:15:08.164Z,101417.33
2019-02-16T09:18:11.096Z,101414.30
2019-02-16T09:20:58.682Z,101407.16
2019-02-16T09:23:42.899Z,101402.69
2019-02-16T09:26:18.902Z,101387.45
2019-02-16T09:28:57.873Z,101394.67
2019-02-16T09:31:45.938Z,101402.86
2019-02-16T09:34:26.779Z,101397.84
2019-02-16T09:37:29.238Z,101395.70
2019-02-16T09:40:31.997Z,101400.84
2019-02-16T09:43:10.941Z,101397.26
2019-02-16T09:45:55.016Z,101392.61
2019-02-16T09:48:28.722Z,101398.35
2019-02-16T09:51:15.204Z,101397.61
2019-02-16T09:53:53.143Z,101393.69
2019-02-16T09:56:41.146Z,101393.81
2019-02-16T09:59:28.781Z,101398.66
2019-02-16T10:02:15.381Z,101396.69
2019-02-16T10:05:05.493Z,101399.08
2019-02-16T10:07:53.053Z,101395.20
2019-02-16T10:10:43.942Z,101394.20
2019-02-16T10:13:22.854Z,101397.61
2019-02-16T10:16:08.770Z,101386.07
2019-02-16T10:18:54.984Z,101393.65
2019-02-16T10:21:43.402Z,101398.53
2019-02-16T10:24:30.014Z,101394.92
2019-02-16T10:27:16.584Z,101400.28
2019-02-16T10:30:16.410Z,101399.52
2019-02-16T10:33:07.656Z,101393.35
2019-02-16T10:35:48.796Z,101397.28
2019-02-16T10:38:25.113Z,101394.44
2019-02-16T10:41:09.726Z,101395.92
2019-02-16T10:44:15.767Z,101401.81
2019-02-16T10:46:53.485Z,101396.92
2019-02-16T10:49:31.014Z,101399.75
2019-02-16T10:52:21.761Z,101398.06
2019-02-16T10:55:10.364Z,101387.06
2019-02-16T10:57:56.611Z,101386.14
2019-02-16T11:00:43.385Z,101386.78
2019-02-16T11:03:25.582Z,101389.31
2019-02-16T11:06:03.691Z,101381.47
2019-02-16T11:08:42.816Z,101378.45
2019-02-16T11:11:21.551Z,101386.25
2019-02-16T11:14:02.697Z,101384.53
2019-02-16T11:16:48.516Z,101381.56
2019-02-16T11:19:34.792Z,101377.48
2019-02-16T11:22:09.640Z,101379.66
2019-02-16T11:24:55.643Z,101375.94
2019-02-16T11:27:46.109Z,101371.86
2019-02-16T11:30:24.548Z,101373.05
2019-02-16T11:33:04.370Z,101378.35
2019-02-16T11:35:45.275Z,101375.42
2019-02-16T11:38:23.449Z,101370.89
2019-02-16T11:41:08.857Z,101371.20
2019-02-16T11:43:52.598Z,101370.22
2019-02-16T11:46:58.688Z,101367.29
2019-02-16T11:49:46.984Z,101361.86
2019-02-16T11:52:35.169Z,101362.61
2019-02-16T11:55:36.014Z,101365.86
2019-02-16T11:58:29.513Z,101357.51
2019-02-16T12:01:25.717Z,101357.19
2019-02-16T12:04:02.581Z,101348.98
2019-02-16T12:06:35.785Z,101346.90
2019-02-16T12:09:30.428Z,101336.05
2019-02-16T12:12:18.030Z,101339.61
2019-02-16T12:14:56.992Z,101329.72
2019-02-16T12:17:47.008Z,101332.91
2019-02-16T12:20:33.421Z,101339.12
2019-02-16T12:23:06.299Z,101346.11
2019-02-16T12:26:09.058Z,101346.05
2019-02-16T12:28:55.804Z,101330.02
2019-02-16T12:31:34.598Z,101335.43
2019-02-16T12:34:16.127Z,101334.07
2019-02-16T12:37:12.688Z,101334.42
2019-02-16T12:39:46.865Z,101332.88
2019-02-16T12:42:33.035Z,101323.41
2019-02-16T12:45:14.872Z,101321.77
2019-02-16T12:47:50.481Z,101319.86
2019-02-16T12:50:34.034Z,101317.94
2019-02-16T12:53:37.037Z,101318.98
2019-02-16T12:56:24.067Z,101311.63
2019-02-16T12:59:00.180Z,101314.87
2019-02-16T13:02:06.192Z,101309.62
2019-02-16T13:04:53.763Z,101310.34
2019-02-16T13:07:30.794Z,101299.88
2019-02-16T13:10:18.752Z,101296.80
2019-02-16T13:13:09.191Z,101300.27
2019-02-16T13:16:05.965Z,101295.92
2019-02-16T13:18:42.282Z,101287.24
2019-02-16T13:21:21.542Z,101290.94
2019-02-16T13:24:04.120Z,101284.18
2019-02-16T13:26:50.477Z,101278.09
2019-02-16T13:29:37.177Z,101283.91
2019-02-16T13:32:16.508Z,101275.44
2019-02-16T13:34:57.404Z,101286.73
2019-02-16T13:37:50.960Z,101280.02
2019-02-16T13:40:25.872Z,101285.94
2019-02-16T13:43:16.206Z,101281.45
2019-02-16T13:45:52.473Z,101280.09
2019-02-16T13:48:55.226Z,101284.16
2019-02-16T13:51:58.201Z,101284.25
2019-02-16T13:54:48.378Z,101278.47
2019-02-16T13:57:31.255Z,101280.73
2019-02-16T14:00:08.214Z,101280.09
2019-02-16T14:02:53.214Z,101277.10
2019-02-16T14:05:30.255Z,101275.77
2019-02-16T14:08:20.947Z,101269.85
2019-02-16T14:11:14.076Z,101270.19
2019-02-16T14:13:51.924Z,101259.71
2019-02-16T14:16:38.399Z,101252.18
2019-02-16T14:19:06.957Z,101250.36
2019-02-16T14:21:35.536Z,101247.91
2019-02-16T14:24:04.157Z,101240.91
2019-02-16T14:26:32.730Z,101237.97
2019-02-16T14:29:01.290Z,101233.05
2019-02-16T14:31:29.894Z,101241.53
2019-02-16T14:33:58.445Z,101228.23
2019-02-16T14:36:27.015Z,101227.65
2019-02-16T14:39:13.270Z,101225.59
2019-02-16T14:41:41.817Z,101229.54
2019-02-16T14:44:10.375Z,101220.63
2019-02-16T14:46:38.978Z,101221.38
2019-02-16T14:49:07.595Z,101222.02
2019-02-16T14:51:36.150Z,101220.53
2019-02-16T14:54:04.736Z,101214.72
2019-02-16T14:56:33.287Z,101223.52
2019-02-16T14:59:01.919Z,101220.31
2019-02-16T15:01:30.464Z,101217.16
2019-02-16T15:03:59.021Z,101218.54
2019-02-16T15:06:27.611Z,101215.50
2019-02-16T15:08:56.199Z,101213.09
2019-02-16T15:11:24.754Z,101214.66
2019-02-16T15:13:53.309Z,101213.45
2019-02-16T15:16:21.890Z,101221.89
2019-02-16T15:18:50.439Z,101223.20
2019-02-16T15:21:19.043Z,101228.03
2019-02-16T15:23:47.631Z,101229.20
2019-02-16T15:26:16.186Z,101228.60
2019-02-16T15:28:44.793Z,101227.27
2019-02-16T15:31:13.380Z,101227.27
2019-02-16T15:33:41.950Z,101223.89
2019-02-16T15:36:10.549Z,101229.59
2019-02-16T15:38:39.109Z,101224.47
2019-02-16T15:41:07.667Z,101222.20
2019-02-16T15:43:36.266Z,101224.59
2019-02-16T15:46:04.855Z,101228.27
2019-02-16T15:48:33.429Z,101230.77
2019-02-16T15:51:02.023Z,101229.39
2019-02-16T15:53:30.916Z,101225.62
2019-02-16T15:55:59.469Z,101229.31
2019-02-16T15:58:28.077Z,101224.86
2019-02-16T16:00:56.657Z,101230.42
2019-02-16T16:03:25.629Z,101240.86
2019-02-16T16:05:54.606Z,101250.44
2019-02-16T16:08:48.298Z,101252.20
2019-02-16T16:11:48.212Z,101261.27
2019-02-16T16:14:27.446Z,101259.09
2019-02-16T16:17:18.161Z,101255.70
2019-02-16T16:20:08.535Z,101257.90
2019-02-16T16:22:56.127Z,101257.75
2019-02-16T16:25:46.268Z,101261.95
2019-02-16T16:28:32.844Z,101267.87
2019-02-16T16:31:21.414Z,101272.95
2019-02-16T16:34:11.856Z,101273.87
2019-02-16T16:37:11.965Z,101276.77
2019-02-16T16:39:58.310Z,101277.84
2019-02-16T16:42:46.392Z,101276.09
2019-02-16T16:45:33.907Z,101278.72
2019-02-16T16:48:20.340Z,101283.77
2019-02-16T16:51:07.948Z,101285.34
2019-02-16T16:54:07.932Z,101291.28
2019-02-16T16:56:58.345Z,101290.44
2019-02-16T16:59:45.933Z,101296.88
2019-02-16T17:02:45.819Z,101302.63
2019-02-16T17:05:39.494Z,101303.73
2019-02-16T17:08:26.294Z,101307.73
2019-02-16T17:11:17.070Z,101298.34
2019-02-16T17:14:16.802Z,101296.88
2019-02-16T17:16:59.331Z,101299.30
2019-02-16T17:19:37.237Z,101304.65
2019-02-16T17:22:14.595Z,101309.98
2019-02-16T17:25:05.363Z,101311.16
2019-02-16T17:27:47.809Z,101310.84
2019-02-16T17:30:29.940Z,101307.91
2019-02-16T17:33:23.082Z,101316.38
2019-02-16T17:35:57.435Z,101318.77
2019-02-16T17:38:41.852Z,101316.01
2019-02-16T17:41:22.242Z,101319.33
2019-02-16T17:43:56.738Z,101322.78
2019-02-16T17:46:41.219Z,101325.41
2019-02-16T17:49:33.362Z,101323.92
2019-02-16T17:52:20.042Z,101323.62
2019-02-16T17:55:06.496Z,101325.07
2019-02-16T17:57:43.229Z,101314.86
2019-02-16T18:00:40.270Z,101326.73
2019-02-16T18:03:26.520Z,101325.91
2019-02-16T18:06:06.014Z,101324.39
2019-02-16T18:09:02.493Z,101324.58
2019-02-16T18:11:41.406Z,101329.36
2019-02-16T18:14:29.012Z,101327.04
2019-02-16T18:17:17.570Z,101329.22
2019-02-16T18:20:05.162Z,101325.69
2019-02-16T18:22:48.443Z,101323.40
2019-02-16T18:25:36.070Z,101326.81
2019-02-16T18:28:28.012Z,101332.06
2019-02-16T18:31:19.413Z,101328.75
2019-02-16T18:34:07.001Z,101324.08
2019-02-16T18:36:54.572Z,101332.81
2019-02-16T18:39:42.236Z,101324.17
2019-02-16T18:42:28.310Z,101328.48
2019-02-16T18:45:14.686Z,101316.77
2019-02-16T18:48:06.008Z,101318.87
2019-02-16T18:51:05.840Z,101314.06
2019-02-16T18:53:56.213Z,101314.64
2019-02-16T18:56:42.783Z,101320.00
2019-02-16T18:59:28.285Z,101320.91
2019-02-16T19:02:05.132Z,101321.68
2019-02-16T19:04:58.819Z,101322.20
2019-02-16T19:07:41.607Z,101327.38
2019-02-16T19:10:44.622Z,101323.83
2019-02-16T19:13:32.247Z,101325.09
2019-02-16T19:16:32.210Z,101323.33
2019-02-16T19:19:18.664Z,101318.78
2019-02-16T19:22:03.872Z,101323.02
2019-02-16T19:24:39.585Z,101328.72
2019-02-16T19:27:16.894Z,101327.91
2019-02-16T19:29:56.693Z,101330.25
2019-02-16T19:32:41.182Z,101327.94
2019-02-16T19:35:38.253Z,101325.69
2019-02-16T19:38:16.922Z,101334.03
2019-02-16T19:41:07.314Z,101345.55
2019-02-16T19:43:54.897Z,101348.90
2019-02-16T19:46:45.688Z,101348.11
2019-02-16T19:49:36.438Z,101342.91
2019-02-16T19:52:27.416Z,101341.94
2019-02-16T19:55:14.143Z,101344.11
2019-02-16T19:57:53.954Z,101341.61
2019-02-16T20:00:34.826Z,101344.95
2019-02-16T20:03:17.714Z,101341.56
2019-02-16T20:06:08.209Z,101343.67
2019-02-16T20:08:45.710Z,101343.67
2019-02-16T20:11:32.857Z,101339.28
2019-02-16T20:14:26.477Z,101332.88
2019-02-16T20:17:16.513Z,101333.56
2019-02-16T20:19:52.587Z,101335.52
2019-02-16T20:22:45.990Z,101342.20
2019-02-16T20:25:49.021Z,101343.37
2019-02-16T20:28:37.972Z,101342.13
2019-02-16T20:31:28.914Z,101338.77
2019-02-16T20:34:09.441Z,101340.19
2019-02-16T20:37:03.215Z,101341.58
2019-02-16T20:39:43.876Z,101347.25
2019-02-16T20:42:31.424Z,101352.05
2019-02-16T20:45:12.703Z,101351.14
2019-02-16T20:48:06.393Z,101354.67
2019-02-16T20:51:00.557Z,101359.70
2019-02-16T20:53:48.402Z,101361.64
2019-02-16T20:56:21.812Z,101358.44
2019-02-16T20:59:08.318Z,101357.77
2019-02-16T21:01:44.589Z,101355.29
2019-02-16T21:04:41.277Z,101356.25
2019-02-16T21:07:27.792Z,101357.19
2019-02-16T21:10:10.441Z,101360.89
2019-02-16T21:12:58.004Z,101352.08
2019-02-16T21:15:40.494Z,101356.45
2019-02-16T21:18:28.089Z,101355.51
2019-02-16T21:21:06.437Z,101352.57
2019-02-16T21:24:00.205Z,101353.22
2019-02-16T21:26:39.827Z,101348.96
2019-02-16T21:29:20.626Z,101347.33
2019-02-16T21:32:01.568Z,101358.83
2019-02-16T21:34:38.379Z,101355.11
2019-02-16T21:37:34.807Z,101351.18
2019-02-16T21:40:13.249Z,101352.34
2019-02-16T21:42:50.589Z,101352.69
2019-02-16T21:45:27.405Z,101361.85
2019-02-16T21:48:08.650Z,101361.73
2019-02-16T21:50:50.784Z,101362.66
2019-02-16T21:53:38.730Z,101370.31
2019-02-16T21:56:20.414Z,101365.47
2019-02-16T21:59:07.711Z,101369.66
2019-02-16T22:01:56.670Z,101370.91
2019-02-16T22:04:30.909Z,101374.84
2019-02-16T22:07:18.481Z,101374.51
2019-02-16T22:10:02.706Z,101370.17
2019-02-16T22:12:50.272Z,101372.58
2019-02-16T22:15:18.869Z,101372.86
2019-02-16T22:17:47.433Z,101374.36
2019-02-16T22:20:15.990Z,101371.75
2019-02-16T22:22:44.599Z,101369.35
2019-02-16T22:25:13.165Z,101367.91
2019-02-16T22:27:41.729Z,101366.64
2019-02-16T22:30:10.669Z,101369.32
2019-02-16T22:32:39.214Z,101368.14
2019-02-16T22:35:08.170Z,101370.83
2019-02-16T22:37:36.721Z,101366.30
2019-02-16T22:40:05.497Z,101359.67
2019-02-16T22:42:34.086Z,101363.94
2019-02-16T22:45:02.709Z,101366.67
2019-02-16T22:47:31.265Z,101371.19
2019-02-16T22:49:59.839Z,101370.22
2019-02-16T22:52:28.421Z,101373.05
2019-02-16T22:54:57.011Z,101373.53
2019-02-16T22:57:26.220Z,101367.67
2019-02-16T22:59:54.776Z,101377.34
2019-02-16T23:02:23.350Z,101377.55
2019-02-16T23:04:51.899Z,101380.39
2019-02-16T23:07:20.478Z,101378.19
2019-02-16T23:09:49.026Z,101383.50
2019-02-16T23:12:17.618Z,101376.14
2019-02-16T23:14:46.507Z,101378.19
2019-02-16T23:17:15.063Z,101382.83
2019-02-16T23:19:43.641Z,101387.10
2019-02-16T23:22:12.216Z,101390.39
2019-02-16T23:24:40.809Z,101382.93
2019-02-16T23:27:09.381Z,101389.58
2019-02-16T23:29:37.955Z,101394.48
2019-02-16T23:32:06.556Z,101388.46
2019-02-16T23:34:35.103Z,101392.41
2019-02-16T23:37:03.657Z,101384.70
2019-02-16T23:39:32.245Z,101381.87
2019-02-16T23:42:00.801Z,101380.47
2019-02-16T23:44:29.354Z,101384.73
2019-02-16T23:46:57.963Z,101379.84
2019-02-16T23:49:26.524Z,101381.00
2019-02-16T23:51:55.120Z,101378.22
2019-02-16T23:54:23.672Z,101377.36
2019-02-16T23:56:52.229Z,101382.76
2019-02-16T23:59:20.818Z,101381.08
